Time;durP1;ratioP1;P1;durP2;ratioP2;P2;SDS_P1;SDS_P2;PMS_P1;PMS_P2;Temp;Humidity;BMP_temperature;BMP_pressure;BME280_temperature;BME280_humidity;BME280_pressure;Samples;Min_cycle;Max_cycle;Signal;HPM_P1;HPM_P2
2022/03/06 00:01:11;;;;;;;16.58;8.25;;;;;;;1.89;100.00;92555.09;4992157;28;20046;-83
2022/03/06 00:03:41;;;;;;;9.35;5.93;;;;;;;1.77;100.00;92564.84;4991990;28;20048;-85
2022/03/06 00:06:08;;;;;;;11.70;6.90;;;;;;;1.95;100.00;92567.84;4991808;28;20054;-84
2022/03/06 00:08:35;;;;;;;7.05;4.78;;;;;;;2.03;100.00;92566.22;4992169;28;20501;-84
2022/03/06 00:11:01;;;;;;;12.80;6.80;;;;;;;2.09;100.00;92568.03;4992014;28;20050;-83
2022/03/06 00:13:28;;;;;;;14.15;6.55;;;;;;;1.88;100.00;92564.44;4991948;28;20484;-83
2022/03/06 00:15:55;;;;;;;8.05;4.93;;;;;;;1.90;100.00;92554.91;4991829;28;20042;-84
2022/03/06 00:18:22;;;;;;;12.85;4.50;;;;;;;1.92;100.00;92562.34;4991632;28;20108;-85
2022/03/06 00:20:50;;;;;;;10.57;4.47;;;;;;;1.76;100.00;92556.44;4991852;28;20100;-84
2022/03/06 00:23:18;;;;;;;10.20;4.75;;;;;;;1.50;100.00;92564.41;4991641;28;20062;-85
2022/03/06 00:25:44;;;;;;;7.60;4.13;;;;;;;1.35;100.00;92537.34;4991797;28;20128;-84
2022/03/06 00:28:13;;;;;;;14.07;6.57;;;;;;;1.59;100.00;92563.41;4991757;28;20050;-84
2022/03/06 00:30:41;;;;;;;26.42;11.07;;;;;;;1.83;100.00;92564.94;4991524;28;20054;-83
2022/03/06 00:33:08;;;;;;;19.38;9.88;;;;;;;1.90;100.00;92554.13;4991475;28;20046;-83
2022/03/06 00:35:34;;;;;;;16.80;8.23;;;;;;;1.87;100.00;92552.72;4991500;28;20481;-82
2022/03/06 00:38:10;;;;;;;11.10;5.60;;;;;;;1.84;100.00;92548.00;4991659;28;20109;-84
2022/03/06 00:40:37;;;;;;;7.38;3.75;;;;;;;1.74;100.00;92563.44;4991614;28;20054;-84
2022/03/06 00:43:04;;;;;;;13.10;8.05;;;;;;;1.91;100.00;92540.50;4991482;28;20050;-84
2022/03/06 00:45:31;;;;;;;15.57;8.98;;;;;;;1.80;100.00;92527.28;4981839;28;20050;-84
2022/03/06 00:48:00;;;;;;;9.05;5.10;;;;;;;2.03;100.00;92551.00;4991604;28;20061;-84
2022/03/06 00:50:26;;;;;;;11.73;6.35;;;;;;;1.96;100.00;92543.31;4996251;28;20050;-84
2022/03/06 00:52:53;;;;;;;11.77;6.28;;;;;;;1.90;100.00;92537.16;4997884;28;20054;-84
2022/03/06 00:55:21;;;;;;;9.25;5.30;;;;;;;1.83;100.00;92526.97;4997928;28;20510;-83
2022/03/06 00:57:48;;;;;;;13.00;7.07;;;;;;;1.83;100.00;92519.38;4997824;28;20050;-82
2022/03/06 01:00:16;;;;;;;12.13;6.43;;;;;;;1.97;100.00;92522.88;4997679;28;20054;-84
2022/03/06 01:02:43;;;;;;;14.10;7.63;;;;;;;1.99;100.00;92525.25;4998046;28;20092;-84
2022/03/06 01:05:10;;;;;;;20.40;9.20;;;;;;;1.99;100.00;92538.66;4997953;28;20489;-84
2022/03/06 01:07:37;;;;;;;20.08;8.95;;;;;;;1.91;100.00;92520.25;4997841;28;20046;-82
2022/03/06 01:10:05;;;;;;;17.27;6.65;;;;;;;1.79;100.00;92525.72;4997771;28;20054;-83
2022/03/06 01:12:33;;;;;;;11.30;6.25;;;;;;;1.72;100.00;92520.56;4997536;28;20054;-84
2022/03/06 01:15:02;;;;;;;12.82;5.43;;;;;;;1.53;100.00;92521.84;4997725;28;21256;-84
2022/03/06 01:17:29;;;;;;;8.60;4.60;;;;;;;1.52;100.00;92506.84;4997639;28;20058;-84
2022/03/06 01:19:55;;;;;;;16.77;6.50;;;;;;;1.60;100.00;92489.84;4997739;28;20064;-82
2022/03/06 01:22:22;;;;;;;14.52;5.95;;;;;;;1.55;100.00;92494.63;4997883;28;20096;-83
2022/03/06 01:24:50;;;;;;;13.80;6.00;;;;;;;1.65;100.00;92512.09;4997642;28;20488;-85
2022/03/06 01:27:17;;;;;;;11.63;5.18;;;;;;;1.60;100.00;92504.22;4997391;28;20493;-86
2022/03/06 01:29:45;;;;;;;8.27;3.83;;;;;;;1.37;100.00;92502.53;4997861;28;20424;-84
2022/03/06 01:32:12;;;;;;;9.02;4.60;;;;;;;1.48;100.00;92495.47;4997765;28;20451;-83
2022/03/06 01:34:39;;;;;;;10.98;5.80;;;;;;;1.60;100.00;92504.22;4997685;28;20046;-84
2022/03/06 01:37:06;;;;;;;12.45;6.43;;;;;;;1.67;100.00;92492.44;4997588;28;20053;-84
2022/03/06 01:39:33;;;;;;;13.00;6.47;;;;;;;1.79;100.00;92492.00;4997329;28;20050;-84
2022/03/06 01:42:00;;;;;;;17.50;9.52;;;;;;;1.66;100.00;92480.75;4997332;28;20057;-82
2022/03/06 01:44:27;;;;;;;16.27;8.55;;;;;;;1.57;100.00;92464.09;4997431;28;20506;-83
2022/03/06 01:46:55;;;;;;;14.43;7.93;;;;;;;1.62;100.00;92481.28;4997516;28;20054;-85
2022/03/06 01:49:22;;;;;;;14.27;8.52;;;;;;;1.68;100.00;92478.03;4997713;28;20065;-85
2022/03/06 01:51:49;;;;;;;16.65;8.85;;;;;;;1.84;100.00;92482.16;4997451;28;20050;-85
2022/03/06 01:54:16;;;;;;;11.32;5.75;;;;;;;1.71;100.00;92458.22;4997281;28;20046;-83
2022/03/06 01:56:43;;;;;;;7.85;4.80;;;;;;;1.73;100.00;92463.13;4997401;28;20555;-83
2022/03/06 01:59:11;;;;;;;11.90;4.35;;;;;;;1.71;100.00;92470.88;4997523;28;20468;-84
2022/03/06 02:01:38;;;;;;;9.52;5.05;;;;;;;1.55;100.00;92464.25;4994904;28;20058;-83
2022/03/06 02:04:06;;;;;;;9.23;5.30;;;;;;;1.83;100.00;92483.13;4994104;28;20386;-85
2022/03/06 02:06:33;;;;;;;13.10;6.05;;;;;;;1.82;100.00;92461.28;4994176;28;20050;-82
2022/03/06 02:09:00;;;;;;;7.60;4.90;;;;;;;1.58;100.00;92466.41;4994024;28;20484;-85
2022/03/06 02:11:27;;;;;;;6.20;4.25;;;;;;;1.60;100.00;92467.03;4994461;28;20058;-84
2022/03/06 02:13:54;;;;;;;6.35;4.38;;;;;;;1.58;100.00;92465.66;4994003;28;20062;-83
2022/03/06 02:16:21;;;;;;;7.55;5.03;;;;;;;1.62;100.00;92473.69;4994046;28;20503;-82
2022/03/06 02:18:48;;;;;;;5.07;3.38;;;;;;;1.60;100.00;92461.19;4993982;28;20051;-84
2022/03/06 02:21:16;;;;;;;7.97;4.45;;;;;;;1.73;100.00;92476.56;4993783;28;20054;-85
2022/03/06 02:23:43;;;;;;;5.32;3.95;;;;;;;1.55;100.00;92463.44;4993919;28;20496;-83
2022/03/06 02:26:11;;;;;;;7.30;4.65;;;;;;;1.59;100.00;92464.69;4994004;28;20120;-84
2022/03/06 02:28:41;;;;;;;5.05;4.30;;;;;;;1.50;100.00;92471.56;4993736;28;20047;-84
2022/03/06 02:31:10;;;;;;;5.38;4.00;;;;;;;1.59;100.00;92472.28;4993763;28;20497;-84
2022/03/06 02:33:37;;;;;;;6.22;4.97;;;;;;;1.61;100.00;92470.34;4993778;28;20105;-83
2022/03/06 02:36:05;;;;;;;6.35;4.35;;;;;;;1.52;100.00;92468.88;4993513;28;20484;-83
2022/03/06 02:38:34;;;;;;;7.10;4.47;;;;;;;1.50;100.00;92465.72;4993626;28;20050;-85
2022/03/06 02:41:00;;;;;;;7.15;4.53;;;;;;;1.47;100.00;92466.84;4993506;28;20054;-86
2022/03/06 02:43:28;;;;;;;6.13;4.03;;;;;;;1.53;100.00;92472.97;4993663;28;20048;-84
2022/03/06 02:45:57;;;;;;;6.68;4.45;;;;;;;1.60;100.00;92477.19;4993499;28;20050;-84
2022/03/06 02:48:24;;;;;;;8.68;4.22;;;;;;;1.49;100.00;92476.78;4993306;28;20082;-82
2022/03/06 02:50:51;;;;;;;6.53;4.57;;;;;;;1.56;100.00;92470.88;4993651;28;20136;-84
2022/03/06 02:53:20;;;;;;;7.05;4.68;;;;;;;1.57;100.00;92459.78;4993314;28;20499;-83
2022/03/06 02:55:48;;;;;;;7.63;4.80;;;;;;;1.65;100.00;92476.66;4993231;28;20444;-84
2022/03/06 02:58:15;;;;;;;7.57;4.50;;;;;;;1.70;100.00;92486.25;4993534;28;20050;-83
2022/03/06 03:00:42;;;;;;;8.07;4.60;;;;;;;1.62;100.00;92476.22;4993087;28;20058;-83
2022/03/06 03:03:10;;;;;;;7.10;4.40;;;;;;;1.49;100.00;92480.13;4993031;28;20046;-84
2022/03/06 03:05:36;;;;;;;5.40;4.03;;;;;;;1.58;100.00;92491.72;4993245;28;20042;-82
2022/03/06 03:08:03;;;;;;;6.07;4.20;;;;;;;1.63;100.00;92490.44;4993213;28;20087;-83
2022/03/06 03:10:30;;;;;;;6.70;4.40;;;;;;;1.63;100.00;92475.25;4993102;28;20046;-85
2022/03/06 03:12:58;;;;;;;6.82;3.92;;;;;;;1.65;100.00;92483.44;4991955;28;20055;-83
2022/03/06 03:15:25;;;;;;;6.47;4.20;;;;;;;1.58;100.00;92478.31;4993295;28;20046;-84
2022/03/06 03:17:52;;;;;;;7.13;4.13;;;;;;;1.51;100.00;92483.25;4992779;28;20100;-84
2022/03/06 03:20:19;;;;;;;6.90;3.72;;;;;;;1.39;100.00;92449.22;4992893;28;20120;-85
2022/03/06 03:22:46;;;;;;;5.20;3.90;;;;;;;1.55;100.00;92471.84;4992954;28;20143;-85
2022/03/06 03:25:13;;;;;;;5.50;4.28;;;;;;;1.57;100.00;92477.50;4992834;28;20057;-85
2022/03/06 03:27:40;;;;;;;6.45;4.25;;;;;;;1.68;100.00;92478.84;4992750;28;20181;-82
2022/03/06 03:30:10;;;;;;;8.63;4.78;;;;;;;1.62;100.00;92471.91;4992423;28;20096;-83
2022/03/06 03:32:37;;;;;;;7.80;4.82;;;;;;;1.31;100.00;92455.91;4992859;28;20054;-82
2022/03/06 03:35:04;;;;;;;9.52;5.78;;;;;;;1.41;100.00;92473.38;4992688;28;20086;-83
2022/03/06 03:37:31;;;;;;;7.68;5.05;;;;;;;1.44;100.00;92477.31;4992659;28;20057;-83
2022/03/06 03:40:00;;;;;;;10.65;6.40;;;;;;;1.34;100.00;92457.31;4992476;28;20058;-84
2022/03/06 03:42:27;;;;;;;12.98;6.22;;;;;;;1.54;100.00;92477.88;4992392;28;20500;-85
2022/03/06 03:44:53;;;;;;;11.05;5.90;;;;;;;1.61;100.00;92480.47;4992293;28;20132;-84
2022/03/06 03:47:22;;;;;;;11.90;6.03;;;;;;;1.62;100.00;92478.75;4992569;28;20046;-82
2022/03/06 03:49:48;;;;;;;10.30;5.85;;;;;;;1.68;100.00;92478.84;4992336;28;20055;-82
2022/03/06 03:52:15;;;;;;;11.65;6.13;;;;;;;1.71;100.00;92472.66;4992705;28;20754;-83
2022/03/06 03:54:44;;;;;;;12.07;6.43;;;;;;;1.68;100.00;92483.91;4992410;28;20109;-83
2022/03/06 03:57:13;;;;;;;12.07;5.82;;;;;;;1.73;100.00;92476.56;4992022;28;20068;-83
2022/03/06 03:59:40;;;;;;;9.13;4.50;;;;;;;1.73;100.00;92453.75;4992017;28;20046;-82
2022/03/06 04:02:07;;;;;;;9.93;5.25;;;;;;;1.85;100.00;92483.75;4975055;28;20046;-83
2022/03/06 04:04:35;;;;;;;10.45;5.57;;;;;;;1.78;100.00;92473.53;5004551;28;20050;-83
2022/03/06 04:07:02;;;;;;;7.50;4.22;;;;;;;1.75;100.00;92478.16;4992066;28;20138;-82
2022/03/06 04:09:29;;;;;;;9.27;4.07;;;;;;;1.70;100.00;92471.06;4991935;28;20077;-83
2022/03/06 04:11:56;;;;;;;9.73;5.15;;;;;;;1.50;100.00;92440.41;4991795;28;20080;-84
2022/03/06 04:14:22;;;;;;;8.77;4.95;;;;;;;1.79;100.00;92485.22;4992066;28;20116;-83
2022/03/06 04:16:49;;;;;;;8.95;4.68;;;;;;;1.79;100.00;92490.28;4991963;28;20393;-84
2022/03/06 04:19:16;;;;;;;6.20;4.10;;;;;;;1.87;100.00;92485.13;4991685;28;20053;-83
2022/03/06 04:21:44;;;;;;;9.32;4.40;;;;;;;1.77;100.00;92473.69;4992041;28;20060;-84
2022/03/06 04:24:11;;;;;;;8.70;4.97;;;;;;;1.82;100.00;92472.22;4991308;28;20042;-82
2022/03/06 04:26:38;;;;;;;10.38;4.20;;;;;;;1.86;100.00;92460.00;4991771;28;20050;-82
2022/03/06 04:29:07;;;;;;;10.80;5.10;;;;;;;1.80;100.00;92470.81;4992068;28;20448;-84
2022/03/06 04:31:34;;;;;;;7.97;4.63;;;;;;;1.86;100.00;92470.88;4991767;28;20133;-85
2022/03/06 04:34:01;;;;;;;12.00;5.35;;;;;;;1.80;100.00;92468.28;4991780;28;20050;-85
2022/03/06 04:36:28;;;;;;;7.20;3.70;;;;;;;1.69;100.00;92469.50;4991545;28;20054;-84
2022/03/06 04:38:57;;;;;;;11.63;5.15;;;;;;;1.84;100.00;92475.34;4972847;28;20489;-84
2022/03/06 04:41:24;;;;;;;8.48;4.97;;;;;;;1.80;100.00;92466.53;4972222;28;20047;-82
2022/03/06 04:43:52;;;;;;;13.50;6.03;;;;;;;1.70;100.00;92458.41;4972365;28;20097;-82
2022/03/06 04:46:19;;;;;;;13.98;7.43;;;;;;;1.65;100.00;92456.41;4972220;28;20050;-83
2022/03/06 04:48:46;;;;;;;14.15;7.38;;;;;;;1.66;100.00;92457.19;4972043;28;20054;-82
2022/03/06 04:51:13;;;;;;;8.50;5.57;;;;;;;1.72;100.00;92454.72;4972047;28;20584;-85
2022/03/06 04:53:40;;;;;;;10.52;5.53;;;;;;;1.76;100.00;92444.28;4983226;28;20080;-84
2022/03/06 04:56:08;;;;;;;10.30;5.75;;;;;;;1.59;100.00;92457.09;4985149;28;20050;-85
2022/03/06 04:58:35;;;;;;;13.00;7.05;;;;;;;1.73;100.00;92458.81;4990667;28;20113;-84
2022/03/06 05:01:03;;;;;;;10.50;5.72;;;;;;;1.75;100.00;92452.81;4982255;28;20058;-82
2022/03/06 05:03:30;;;;;;;10.48;5.40;;;;;;;1.71;100.00;92434.66;4985014;28;20050;-83
2022/03/06 05:05:56;;;;;;;27.58;11.30;;;;;;;1.58;100.00;92458.06;5005062;28;20519;-84
2022/03/06 05:08:26;;;;;;;14.32;7.15;;;;;;;1.63;100.00;92458.31;4999887;28;20047;-82
2022/03/06 05:10:53;;;;;;;11.13;5.03;;;;;;;1.72;100.00;92461.56;4991148;28;20054;-83
2022/03/06 05:13:21;;;;;;;7.93;4.30;;;;;;;1.70;100.00;92448.25;4993295;28;20061;-83
2022/03/06 05:15:48;;;;;;;10.35;5.72;;;;;;;1.72;100.00;92454.72;4991233;28;20046;-83
2022/03/06 05:18:15;;;;;;;15.32;6.10;;;;;;;1.60;100.00;92453.59;4991194;28;20456;-83
2022/03/06 05:20:42;;;;;;;9.82;6.22;;;;;;;1.60;100.00;92456.91;4990832;28;20054;-84
2022/03/06 05:23:09;;;;;;;10.10;5.47;;;;;;;1.54;100.00;92462.69;4990942;28;20509;-83
2022/03/06 05:25:36;;;;;;;20.35;9.30;;;;;;;1.48;100.00;92470.16;4991044;28;20417;-83
2022/03/06 05:28:03;;;;;;;15.23;7.47;;;;;;;1.51;100.00;92464.75;4990962;28;20109;-84
2022/03/06 05:30:31;;;;;;;13.70;7.07;;;;;;;1.49;100.00;92467.47;4990442;28;20057;-83
2022/03/06 05:32:58;;;;;;;9.60;5.93;;;;;;;1.57;100.00;92474.22;4990825;28;20046;-83
2022/03/06 05:35:25;;;;;;;12.85;6.78;;;;;;;1.25;100.00;92461.66;4988902;28;20054;-84
2022/03/06 05:37:52;;;;;;;21.02;10.27;;;;;;;1.31;100.00;92466.03;4994201;28;20401;-82
2022/03/06 05:40:18;;;;;;;19.52;9.65;;;;;;;1.38;100.00;92475.47;4994688;28;20101;-82
2022/03/06 05:42:45;;;;;;;15.65;7.20;;;;;;;1.50;100.00;92478.38;4994587;28;20050;-83
2022/03/06 05:45:12;;;;;;;10.52;5.05;;;;;;;1.38;100.00;92458.53;4994080;28;20050;-83
2022/03/06 05:47:41;;;;;;;13.98;7.40;;;;;;;1.49;100.00;92481.84;4985699;28;20050;-83
2022/03/06 05:50:08;;;;;;;10.90;6.30;;;;;;;1.20;100.00;92466.44;4990511;28;20058;-83
2022/03/06 05:52:35;;;;;;;14.95;7.55;;;;;;;1.17;100.00;92479.44;4994561;28;20073;-84
2022/03/06 05:55:03;;;;;;;9.38;5.32;;;;;;;1.23;100.00;92480.47;4994317;28;20050;-85
2022/03/06 05:57:29;;;;;;;15.60;8.68;;;;;;;1.30;100.00;92491.50;4994246;28;20054;-84
2022/03/06 05:59:56;;;;;;;9.82;6.15;;;;;;;1.40;100.00;92473.56;4982209;28;20046;-84
2022/03/06 06:02:23;;;;;;;12.65;6.43;;;;;;;1.49;100.00;92487.72;4998254;28;20061;-84
2022/03/06 06:04:52;;;;;;;11.07;6.05;;;;;;;1.57;100.00;92480.03;5001132;28;20435;-83
2022/03/06 06:07:18;;;;;;;9.70;5.97;;;;;;;1.45;100.00;92482.19;4997354;28;20496;-83
2022/03/06 06:09:45;;;;;;;11.23;6.15;;;;;;;1.47;100.00;92492.16;4994211;28;20050;-83
2022/03/06 06:12:12;;;;;;;8.93;4.95;;;;;;;1.59;100.00;92498.38;4994098;28;20069;-84
2022/03/06 06:14:39;;;;;;;5.30;3.67;;;;;;;1.67;100.00;92504.31;5012800;28;20058;-82
2022/03/06 06:17:06;;;;;;;14.00;8.00;;;;;;;1.49;100.00;92489.44;5013932;28;20054;-84
2022/03/06 06:19:32;;;;;;;9.25;6.10;;;;;;;1.48;100.00;92492.94;5013979;28;20419;-85
2022/03/06 06:22:00;;;;;;;6.68;4.80;;;;;;;1.40;100.00;92481.94;5013738;28;20092;-83
2022/03/06 06:24:32;;;;;;;6.78;4.00;;;;;;;1.42;100.00;92479.22;5013703;28;20053;-84
2022/03/06 06:26:58;;;;;;;5.63;3.15;;;;;;;1.26;100.00;92477.63;5013463;28;20046;-84
2022/03/06 06:29:25;;;;;;;7.40;4.32;;;;;;;1.39;100.00;92503.13;5013276;28;20053;-85
2022/03/06 06:31:52;;;;;;;8.50;5.00;;;;;;;1.32;100.00;92497.97;5013538;28;20046;-84
2022/03/06 06:34:20;;;;;;;8.30;4.40;;;;;;;1.48;100.00;92513.19;5013469;28;20045;-84
2022/03/06 06:36:47;;;;;;;6.20;3.70;;;;;;;1.42;100.00;92512.13;5013195;28;20049;-84
2022/03/06 06:39:16;;;;;;;8.77;4.68;;;;;;;1.53;100.00;92516.78;5013325;28;20045;-82
2022/03/06 06:41:43;;;;;;;5.85;4.47;;;;;;;1.43;100.00;92480.81;5013240;28;20053;-83
2022/03/06 06:44:11;;;;;;;5.22;3.60;;;;;;;1.70;100.00;92531.81;5013711;28;20050;-82
2022/03/06 06:46:40;;;;;;;5.38;3.22;;;;;;;1.83;100.00;92529.50;5013867;28;20060;-84
2022/03/06 06:49:07;;;;;;;5.35;3.35;;;;;;;1.94;100.00;92537.63;5005110;28;20046;-83
2022/03/06 06:51:34;;;;;;;5.93;3.40;;;;;;;1.99;100.00;92538.66;4993477;28;20054;-82
2022/03/06 06:54:01;;;;;;;5.30;3.90;;;;;;;2.03;100.00;92539.09;4993320;28;20133;-84
2022/03/06 06:56:29;;;;;;;7.22;3.85;;;;;;;2.10;100.00;92541.75;5005723;28;20484;-83
2022/03/06 06:58:56;;;;;;;6.18;4.03;;;;;;;2.24;100.00;92542.69;4999776;28;20113;-83
2022/03/06 07:01:23;;;;;;;8.07;4.20;;;;;;;2.27;100.00;92542.38;4990690;28;20519;-85
2022/03/06 07:03:50;;;;;;;6.70;4.30;;;;;;;2.22;100.00;92552.25;4991414;28;20093;-84
2022/03/06 07:06:17;;;;;;;5.93;4.03;;;;;;;2.35;100.00;92547.34;4999233;28;20092;-83
2022/03/06 07:08:44;;;;;;;6.38;3.92;;;;;;;2.33;100.00;92538.34;5006807;28;20108;-85
2022/03/06 07:11:11;;;;;;;5.35;3.80;;;;;;;2.08;100.00;92536.84;4992969;28;20571;-84
2022/03/06 07:13:39;;;;;;;7.88;4.10;;;;;;;2.20;100.00;92539.75;4993310;28;20058;-83
2022/03/06 07:16:06;;;;;;;7.00;4.45;;;;;;;2.17;100.00;92529.94;5011781;28;20050;-83
2022/03/06 07:18:33;;;;;;;8.57;4.57;;;;;;;2.38;100.00;92558.88;5012571;28;20133;-84
2022/03/06 07:21:02;;;;;;;10.15;6.07;;;;;;;2.46;100.00;92542.78;5012342;28;20053;-83
2022/03/06 07:23:29;;;;;;;9.80;5.95;;;;;;;2.15;100.00;92526.81;5012351;28;20050;-84
2022/03/06 07:25:56;;;;;;;7.68;4.60;;;;;;;2.32;100.00;92560.34;5012553;28;20049;-83
2022/03/06 07:28:24;;;;;;;14.38;7.80;;;;;;;2.37;100.00;92557.31;5012301;28;20050;-87
2022/03/06 07:30:53;;;;;;;13.38;7.28;;;;;;;2.24;100.00;92551.09;5012319;28;20049;-83
2022/03/06 07:33:19;;;;;;;13.20;9.20;;;;;;;2.31;100.00;92563.84;5012246;28;20129;-83
2022/03/06 07:35:46;;;;;;;6.10;4.82;;;;;;;2.44;100.00;92565.00;5012087;28;20050;-83
2022/03/06 07:38:13;;;;;;;8.13;5.75;;;;;;;2.43;100.00;92564.19;5012073;28;20046;-85
2022/03/06 07:40:40;;;;;;;7.78;4.72;;;;;;;2.63;100.00;92561.09;5012182;28;20092;-83
2022/03/06 07:43:07;;;;;;;7.10;4.50;;;;;;;2.60;100.00;92557.19;5011911;28;20504;-83
2022/03/06 07:45:34;;;;;;;4.57;3.40;;;;;;;2.87;100.00;92567.63;5011896;28;20045;-84
2022/03/06 07:48:03;;;;;;;7.28;4.32;;;;;;;2.96;100.00;92580.22;5007294;28;20488;-82
2022/03/06 07:50:40;;;;;;;7.75;5.00;;;;;;;2.86;100.00;92588.91;4973173;28;20046;-83
2022/03/06 07:53:08;;;;;;;6.00;4.03;;;;;;;2.84;100.00;92595.13;4972890;28;20413;-84
2022/03/06 07:55:35;;;;;;;5.55;3.65;;;;;;;2.69;100.00;92574.84;4973221;28;20055;-84
2022/03/06 07:58:01;;;;;;;4.57;3.33;;;;;;;2.67;100.00;92608.78;4972690;28;20053;-83
2022/03/06 08:00:28;;;;;;;4.47;3.28;;;;;;;2.69;100.00;92592.59;4972140;28;20058;-84
2022/03/06 08:02:56;;;;;;;5.57;4.32;;;;;;;2.59;100.00;92593.66;4972433;28;20457;-85
2022/03/06 08:05:24;;;;;;;6.82;4.50;;;;;;;2.53;100.00;92600.22;4991402;28;20508;-83
2022/03/06 08:07:51;;;;;;;6.68;5.05;;;;;;;2.50;100.00;92595.47;4992017;28;20050;-85
2022/03/06 08:10:18;;;;;;;8.38;4.80;;;;;;;2.42;100.00;92577.84;4992139;28;20058;-83
2022/03/06 08:12:47;;;;;;;9.60;4.53;;;;;;;2.34;100.00;92568.56;4991877;28;20054;-83
2022/03/06 08:15:14;;;;;;;8.40;4.95;;;;;;;2.30;100.00;92579.25;4991827;28;20050;-83
2022/03/06 08:17:41;;;;;;;7.53;4.93;;;;;;;2.29;100.00;92582.72;4991703;28;20055;-85
2022/03/06 08:20:09;;;;;;;7.72;4.80;;;;;;;2.27;100.00;92581.16;4991521;28;20093;-83
2022/03/06 08:22:37;;;;;;;10.90;5.68;;;;;;;2.23;100.00;92584.97;4991722;28;20519;-83
2022/03/06 08:25:07;;;;;;;12.98;5.82;;;;;;;2.40;100.00;92577.22;4991573;28;20049;-83
2022/03/06 08:27:34;;;;;;;7.47;3.80;;;;;;;2.43;100.00;92576.88;4991609;28;20108;-84
2022/03/06 08:30:01;;;;;;;6.95;3.75;;;;;;;2.33;100.00;92572.06;4991550;28;20054;-83
2022/03/06 08:32:27;;;;;;;9.13;3.55;;;;;;;2.50;100.00;92576.97;4991767;28;20053;-84
2022/03/06 08:34:55;;;;;;;10.00;5.60;;;;;;;2.39;100.00;92543.50;4991511;28;20051;-84
2022/03/06 08:37:22;;;;;;;10.40;5.93;;;;;;;2.84;100.00;92557.06;4988551;28;20086;-83
2022/03/06 08:39:50;;;;;;;21.90;7.15;;;;;;;2.88;100.00;92545.59;4971090;28;20047;-83
2022/03/06 08:42:18;;;;;;;16.00;6.32;;;;;;;3.14;100.00;92546.84;4978298;28;20599;-83
2022/03/06 08:44:46;;;;;;;9.80;5.53;;;;;;;3.35;100.00;92551.16;4976898;28;20058;-85
2022/03/06 08:47:12;;;;;;;15.38;8.05;;;;;;;3.70;100.00;92553.00;4976209;28;20050;-83
2022/03/06 08:49:39;;;;;;;10.40;5.60;;;;;;;3.87;100.00;92556.03;4979216;28;20050;-85
2022/03/06 08:52:07;;;;;;;9.13;5.32;;;;;;;4.04;100.00;92543.84;4971785;28;20489;-83
2022/03/06 08:54:34;;;;;;;11.50;5.80;;;;;;;4.16;100.00;92556.81;4971932;28;20057;-85
2022/03/06 08:57:02;;;;;;;11.25;5.88;;;;;;;4.19;100.00;92550.56;4972001;28;20047;-82
2022/03/06 08:59:29;;;;;;;9.05;4.53;;;;;;;4.20;100.00;92537.69;4971428;28;20077;-83
2022/03/06 09:01:56;;;;;;;15.13;8.88;;;;;;;4.58;100.00;92541.59;4971932;28;20058;-83
2022/03/06 09:04:24;;;;;;;8.65;5.85;;;;;;;4.73;97.40;92541.47;4975370;28;20078;-83
2022/03/06 09:06:52;;;;;;;12.77;7.28;;;;;;;4.92;95.72;92547.56;4991239;28;20109;-84
2022/03/06 09:09:19;;;;;;;7.18;4.30;;;;;;;4.81;96.17;92548.94;4991790;28;20056;-84
2022/03/06 09:11:46;;;;;;;6.18;4.32;;;;;;;4.86;97.87;92543.25;4994410;28;20054;-83
2022/03/06 09:14:14;;;;;;;12.40;8.38;;;;;;;5.10;96.90;92551.38;4995406;28;20101;-85
2022/03/06 09:16:41;;;;;;;11.25;8.02;;;;;;;5.40;95.37;92563.75;4995172;28;20496;-85
2022/03/06 09:19:07;;;;;;;7.22;4.57;;;;;;;5.50;93.88;92565.94;4995197;28;20054;-85
2022/03/06 09:21:34;;;;;;;23.50;15.73;;;;;;;5.62;95.00;92558.50;4979331;28;20109;-83
2022/03/06 09:24:01;;;;;;;22.50;12.70;;;;;;;5.80;91.74;92562.22;4975649;28;20094;-83
2022/03/06 09:26:28;;;;;;;11.18;6.72;;;;;;;5.70;93.06;92563.38;4975405;28;20043;-84
2022/03/06 09:28:56;;;;;;;7.82;5.10;;;;;;;5.85;90.57;92553.03;4975708;28;20047;-86
2022/03/06 09:31:25;;;;;;;6.07;4.03;;;;;;;6.13;89.40;92561.47;4975587;28;20118;-85
2022/03/06 09:33:52;;;;;;;8.63;3.72;;;;;;;6.17;88.05;92562.63;4975360;28;20576;-84
2022/03/06 09:36:19;;;;;;;5.32;3.40;;;;;;;6.05;85.81;92543.81;4975366;28;20105;-84
2022/03/06 09:38:46;;;;;;;5.28;3.25;;;;;;;6.36;86.40;92563.59;4975329;28;20047;-84
2022/03/06 09:41:16;;;;;;;9.60;5.85;;;;;;;6.48;85.09;92570.63;4975184;28;20055;-85
2022/03/06 09:43:45;;;;;;;23.98;13.68;;;;;;;6.72;84.63;92578.59;4975283;28;20094;-84
2022/03/06 09:46:13;;;;;;;13.93;8.55;;;;;;;6.86;84.15;92580.16;4975073;28;20137;-83
2022/03/06 09:48:43;;;;;;;6.13;3.85;;;;;;;6.64;80.81;92571.94;4975464;28;20038;-83
2022/03/06 09:51:09;;;;;;;7.40;2.90;;;;;;;6.57;80.22;92574.50;4975047;28;20061;-81
2022/03/06 09:53:36;;;;;;;7.45;4.68;;;;;;;6.40;79.85;92580.03;4974996;28;20065;-81
2022/03/06 09:56:03;;;;;;;8.80;4.82;;;;;;;6.54;80.58;92573.16;4975199;28;20053;-82
2022/03/06 09:58:30;;;;;;;14.85;7.53;;;;;;;6.70;81.32;92580.59;4974976;28;20054;-83
2022/03/06 10:00:57;;;;;;;5.70;3.65;;;;;;;6.55;81.35;92579.84;4974980;28;20046;-81
2022/03/06 10:03:24;;;;;;;5.82;3.75;;;;;;;6.35;81.49;92568.88;4974894;28;20457;-82
2022/03/06 10:05:53;;;;;;;10.25;4.03;;;;;;;6.48;81.93;92563.75;4989934;28;20097;-83
2022/03/06 10:08:24;;;;;;;6.53;3.53;;;;;;;6.27;81.94;92569.88;4994254;28;20606;-81
2022/03/06 10:10:54;;;;;;;12.18;5.35;;;;;;;6.33;83.49;92575.94;4994284;28;20132;-82
2022/03/06 10:13:29;;;;;;;13.13;7.90;;;;;;;6.23;85.13;92581.44;4986271;28;20102;-82
2022/03/06 10:16:11;;;;;;;10.95;6.57;;;;;;;5.94;84.99;92563.00;4974455;28;20050;-82
2022/03/06 10:18:40;;;;;;;9.50;5.30;;;;;;;5.66;86.63;92576.72;4974736;28;20051;-83
2022/03/06 10:21:23;;;;;;;13.52;6.68;;;;;;;5.44;86.79;92548.88;4974679;28;20409;-83
2022/03/06 10:23:52;;;;;;;12.05;5.57;;;;;;;5.47;86.31;92567.09;4974064;28;20062;-82
2022/03/06 10:26:23;;;;;;;6.88;3.53;;;;;;;4.92;87.83;92554.44;4974523;28;20489;-82
2022/03/06 10:28:55;;;;;;;8.52;4.45;;;;;;;5.03;90.28;92581.91;4974294;28;20477;-82
2022/03/06 10:31:25;;;;;;;10.18;3.88;;;;;;;4.99;92.43;92579.94;4974376;28;20051;-83
2022/03/06 10:33:57;;;;;;;6.32;4.20;;;;;;;5.03;93.91;92570.91;4974321;28;20050;-82
2022/03/06 10:36:37;;;;;;;7.13;4.20;;;;;;;4.84;96.06;92578.28;4974353;28;20525;-82
2022/03/06 10:39:10;;;;;;;5.78;4.13;;;;;;;4.71;97.47;92581.56;4974255;28;20508;-83
2022/03/06 10:41:39;;;;;;;8.98;4.80;;;;;;;4.54;97.71;92578.56;4974061;28;20150;-82
2022/03/06 10:44:06;;;;;;;7.68;3.15;;;;;;;4.33;99.24;92582.75;4974241;28;20130;-82
2022/03/06 10:46:35;;;;;;;7.40;4.57;;;;;;;4.41;100.00;92581.81;4985063;28;20071;-83
2022/03/06 10:49:08;;;;;;;8.18;5.10;;;;;;;4.46;100.00;92578.69;4989523;28;20055;-82
2022/03/06 10:51:40;;;;;;;8.57;4.95;;;;;;;4.49;100.00;92584.19;4993334;28;20138;-83
2022/03/06 10:54:08;;;;;;;8.23;4.57;;;;;;;4.11;100.00;92589.63;4993388;28;20073;-83
2022/03/06 10:56:37;;;;;;;8.73;5.10;;;;;;;4.18;100.00;92574.44;4993311;28;20046;-84
2022/03/06 10:59:05;;;;;;;14.25;8.48;;;;;;;4.00;100.00;92583.31;4993572;28;20109;-83
2022/03/06 11:01:33;;;;;;;28.20;15.45;;;;;;;4.07;100.00;92591.75;4993158;28;20051;-82
2022/03/06 11:04:02;;;;;;;7.18;4.53;;;;;;;3.31;100.00;92549.94;4983562;28;20050;-83
2022/03/06 11:06:30;;;;;;;6.50;3.92;;;;;;;3.51;100.00;92588.19;4975318;28;20054;-82
2022/03/06 11:08:59;;;;;;;6.25;3.50;;;;;;;3.21;100.00;92551.00;4979831;28;21348;-82
2022/03/06 11:11:26;;;;;;;9.73;4.10;;;;;;;3.39;100.00;92603.13;4991533;28;20448;-83
2022/03/06 11:13:55;;;;;;;5.07;3.10;;;;;;;3.40;100.00;92602.16;5004445;28;20496;-82
2022/03/06 11:16:22;;;;;;;5.15;3.53;;;;;;;3.16;100.00;92596.44;5012583;28;20100;-82
2022/03/06 11:18:50;;;;;;;6.68;3.63;;;;;;;3.27;100.00;92596.94;5012352;28;20092;-81
2022/03/06 11:21:17;;;;;;;6.18;3.83;;;;;;;3.28;100.00;92596.00;5012510;28;20049;-83
2022/03/06 11:23:49;;;;;;;32.13;19.38;;;;;;;3.32;100.00;92594.66;5012645;28;20397;-85
2022/03/06 11:26:43;;;;;;;33.35;19.65;;;;;;;3.27;100.00;92592.66;5012279;28;20412;-83
2022/03/06 11:29:43;;;;;;;6.13;3.40;;;;;;;3.12;100.00;92602.06;5012223;28;20058;-83
2022/03/06 11:32:10;;;;;;;5.47;3.85;;;;;;;3.05;100.00;92600.25;5012537;28;20291;-84
2022/03/06 11:34:41;;;;;;;6.32;3.25;;;;;;;2.61;100.00;92566.38;5011247;28;20111;-83